createdAt,value
2023-04-02T00:02:47.708Z,4.30
2023-04-02T00:07:50.258Z,4.30
2023-04-02T00:13:01.673Z,3.90
2023-04-02T00:18:02.650Z,3.90
2023-04-02T00:23:01.207Z,4.10
2023-04-02T00:27:59.983Z,4.20
2023-04-02T00:32:58.898Z,4.30
2023-04-02T00:37:59.094Z,4.20
2023-04-02T00:43:00.659Z,4.40
2023-04-02T00:48:00.752Z,4.30
2023-04-02T00:53:05.753Z,4.10
2023-04-02T00:58:05.356Z,4.10
2023-04-02T01:03:30.395Z,4.00
2023-04-02T01:08:41.401Z,3.90
2023-04-02T01:13:47.307Z,3.90
2023-04-02T01:18:53.784Z,4.10
2023-04-02T01:24:02.722Z,3.80
2023-04-02T01:29:08.176Z,3.90
2023-04-02T01:34:09.389Z,4.00
2023-04-02T01:39:16.404Z,4.00
2023-04-02T01:44:20.894Z,3.90
2023-04-02T01:49:22.522Z,4.20
2023-04-02T01:54:22.236Z,4.60
2023-04-02T01:59:24.351Z,4.70
2023-04-02T02:04:30.083Z,4.70
2023-04-02T02:09:31.437Z,4.90
2023-04-02T02:14:32.713Z,5.10
2023-04-02T02:19:36.210Z,5.30
2023-04-02T02:24:36.514Z,5.40
2023-04-02T02:29:39.849Z,5.40
2023-04-02T02:34:41.966Z,5.30
2023-04-02T02:39:44.394Z,4.90
2023-04-02T02:44:48.467Z,4.40
2023-04-02T02:49:50.914Z,4.30
2023-04-02T02:54:53.306Z,4.30
2023-04-02T02:59:58.309Z,4.20
2023-04-02T03:04:58.767Z,4.30
2023-04-02T03:10:08.168Z,4.20
2023-04-02T03:15:17.872Z,4.50
2023-04-02T03:20:22.461Z,4.40
2023-04-02T03:25:29.460Z,4.10
2023-04-02T03:30:38.049Z,3.90
2023-04-02T03:35:44.463Z,3.80
2023-04-02T03:40:46.197Z,3.90
2023-04-02T03:45:51.187Z,3.80
2023-04-02T03:50:56.726Z,3.60
2023-04-02T03:55:57.589Z,3.40
2023-04-02T04:01:02.125Z,3.30
2023-04-02T04:06:03.634Z,3.40
2023-04-02T04:11:10.021Z,3.40
2023-04-02T04:16:13.386Z,3.50
2023-04-02T04:21:17.495Z,3.50
2023-04-02T04:26:24.919Z,3.60
2023-04-02T04:31:39.328Z,3.70
2023-04-02T04:36:54.360Z,3.80
2023-04-02T04:42:00.132Z,4.00
2023-04-02T04:47:05.313Z,4.20
2023-04-02T04:52:10.533Z,4.30
2023-04-02T04:57:24.670Z,4.30
2023-04-02T05:02:31.115Z,4.10
2023-04-02T05:07:37.546Z,4.20
2023-04-02T05:12:41.261Z,4.00
2023-04-02T05:17:51.635Z,4.20
2023-04-02T05:22:56.118Z,3.80
2023-04-02T05:28:00.895Z,4.10
2023-04-02T05:33:05.483Z,3.80
2023-04-02T05:38:06.971Z,3.90
2023-04-02T05:43:10.185Z,3.90
2023-04-02T05:48:20.098Z,4.00
2023-04-02T05:53:22.633Z,4.00
2023-04-02T05:58:36.096Z,4.10
2023-04-02T06:03:52.692Z,4.10
2023-04-02T06:08:58.382Z,4.00
2023-04-02T06:13:57.450Z,4.20
2023-04-02T06:18:59.052Z,4.50
2023-04-02T06:24:00.683Z,4.80
2023-04-02T06:29:06.150Z,4.50
2023-04-02T06:34:11.870Z,4.60
2023-04-02T06:39:18.915Z,4.50
2023-04-02T06:44:22.939Z,4.90
2023-04-02T06:49:48.739Z,5.20
2023-04-02T06:54:47.883Z,5.30
2023-04-02T06:59:47.839Z,5.40
2023-04-02T07:04:54.128Z,5.40
2023-04-02T07:09:53.757Z,5.30
2023-04-02T07:14:52.430Z,5.80
2023-04-02T07:19:52.752Z,5.90
2023-04-02T07:24:52.694Z,5.80
2023-04-02T07:29:51.304Z,6.00
2023-04-02T07:34:49.790Z,6.20
2023-04-02T07:39:49.691Z,6.70
2023-04-02T07:44:48.188Z,6.50
2023-04-02T07:49:47.058Z,6.50
2023-04-02T07:54:45.595Z,6.90
2023-04-02T07:59:45.453Z,7.00
2023-04-02T08:04:43.931Z,7.50
2023-04-02T08:09:42.191Z,7.60
2023-04-02T08:14:41.421Z,7.80
2023-04-02T08:19:53.762Z,8.30
2023-04-02T08:24:53.714Z,8.50
2023-04-02T08:29:52.356Z,8.40
2023-04-02T08:34:52.240Z,8.40
2023-04-02T08:39:50.898Z,8.30
2023-04-02T08:44:58.373Z,8.40
2023-04-02T08:50:02.576Z,8.30
2023-04-02T08:55:03.341Z,8.20
2023-04-02T09:00:10.162Z,8.30
2023-04-02T09:05:19.131Z,8.50
2023-04-02T09:10:18.931Z,8.50
2023-04-02T09:15:25.088Z,8.30
2023-04-02T09:20:27.975Z,8.10
2023-04-02T09:25:28.546Z,8.10
2023-04-02T09:30:40.751Z,8.40
2023-04-02T09:35:56.691Z,8.90
2023-04-02T09:41:00.384Z,9.40
2023-04-02T09:46:02.013Z,9.50
2023-04-02T09:51:13.952Z,9.50
2023-04-02T09:56:15.934Z,9.30
2023-04-02T10:01:30.827Z,9.30
2023-04-02T10:06:32.628Z,9.70
2023-04-02T10:11:46.285Z,10.10
2023-04-02T10:16:51.953Z,10.20
2023-04-02T10:21:53.767Z,10.40
2023-04-02T10:27:02.363Z,10.70
2023-04-02T10:32:06.484Z,10.90
2023-04-02T10:37:22.367Z,11.10
2023-04-02T10:42:27.627Z,11.50
2023-04-02T10:47:35.020Z,11.40
2023-04-02T10:52:39.686Z,11.10
2023-04-02T10:57:40.975Z,10.90
2023-04-02T11:02:48.872Z,11.00
2023-04-02T11:07:58.956Z,11.00
2023-04-02T11:13:02.930Z,11.20
2023-04-02T11:18:01.345Z,11.10
2023-04-02T11:23:12.379Z,11.00
2023-04-02T11:28:26.151Z,10.90
2023-04-02T11:33:44.012Z,11.00
2023-04-02T11:38:54.903Z,11.00
2023-04-02T11:44:02.956Z,11.10
2023-04-02T11:49:37.875Z,10.80
2023-04-02T11:54:39.675Z,10.90
2023-04-02T11:59:47.667Z,11.00
2023-04-02T12:05:04.625Z,11.30
2023-04-02T12:10:07.288Z,11.50
2023-04-02T12:15:10.458Z,11.50
2023-04-02T12:20:22.212Z,11.30
2023-04-02T12:25:29.734Z,11.40
2023-04-02T12:30:28.482Z,11.60
2023-04-02T12:35:31.060Z,11.90
2023-04-02T12:40:30.974Z,11.90
2023-04-02T12:45:33.313Z,12.00
2023-04-02T12:50:31.504Z,11.70
2023-04-02T12:55:32.203Z,11.70
2023-04-02T13:00:36.479Z,11.60
2023-04-02T13:05:38.094Z,11.80
2023-04-02T13:10:38.119Z,11.60
2023-04-02T13:15:37.132Z,11.40
2023-04-02T13:20:37.513Z,11.20
2023-04-02T13:25:38.470Z,11.20
2023-04-02T13:30:37.438Z,11.20
2023-04-02T13:35:36.122Z,11.20
2023-04-02T13:40:35.484Z,11.20
2023-04-02T13:45:39.257Z,11.30
2023-04-02T13:50:38.303Z,11.20
2023-04-02T13:55:40.270Z,10.90
2023-04-02T14:00:40.183Z,11.00
2023-04-02T14:05:43.501Z,11.00
2023-04-02T14:11:04.291Z,11.10
2023-04-02T14:16:19.568Z,11.30
2023-04-02T14:21:26.897Z,11.30
2023-04-02T14:26:39.865Z,11.30
2023-04-02T14:31:44.882Z,11.20
2023-04-02T14:36:56.742Z,11.10
2023-04-02T14:42:02.269Z,10.90
2023-04-02T14:47:12.419Z,11.00
2023-04-02T14:52:15.278Z,11.10
2023-04-02T14:57:21.810Z,11.00
2023-04-02T15:02:29.383Z,10.60
2023-04-02T15:07:34.813Z,10.50
2023-04-02T15:12:37.441Z,10.50
2023-04-02T15:17:37.655Z,10.30
2023-04-02T15:22:41.273Z,10.20
2023-04-02T15:28:03.655Z,10.20
2023-04-02T15:33:32.007Z,10.00
2023-04-02T15:38:36.247Z,9.80
2023-04-02T15:43:42.976Z,9.80
2023-04-02T15:49:06.090Z,9.70
2023-04-02T15:54:14.388Z,9.80
2023-04-02T15:59:41.551Z,9.90
2023-04-02T16:04:50.251Z,9.50
2023-04-02T16:09:57.142Z,9.50
2023-04-02T16:15:06.188Z,9.60
2023-04-02T16:20:18.011Z,9.60
2023-04-02T16:25:19.749Z,9.50
2023-04-02T16:30:42.953Z,9.40
2023-04-02T16:35:55.418Z,9.30
2023-04-02T16:41:08.208Z,9.10
2023-04-02T16:46:12.805Z,9.00
2023-04-02T16:51:21.490Z,8.80
2023-04-02T16:56:35.320Z,8.80
2023-04-02T17:01:43.859Z,8.60
2023-04-02T17:06:45.274Z,8.50
2023-04-02T17:11:49.144Z,8.40
2023-04-02T17:16:50.675Z,8.30
2023-04-02T17:21:54.104Z,8.00
2023-04-02T17:26:56.820Z,7.90
2023-04-02T17:32:01.380Z,7.90
2023-04-02T17:37:16.720Z,8.20
2023-04-02T17:42:20.080Z,7.90
2023-04-02T17:47:22.444Z,7.70
2023-04-02T17:52:30.152Z,7.80
2023-04-02T17:57:42.165Z,8.20
2023-04-02T18:02:56.687Z,7.90
2023-04-02T18:08:04.488Z,7.60
2023-04-02T18:13:08.824Z,7.40
2023-04-02T18:18:20.241Z,7.30
2023-04-02T18:23:34.892Z,7.20
2023-04-02T18:28:46.877Z,7.20
2023-04-02T18:34:07.599Z,7.50
2023-04-02T18:39:17.727Z,7.40
2023-04-02T18:44:36.413Z,7.10
2023-04-02T18:49:40.308Z,7.10
2023-04-02T18:54:42.693Z,7.10
2023-04-02T18:59:46.538Z,7.00
2023-04-02T19:04:51.403Z,6.80
2023-04-02T19:09:53.247Z,6.70
2023-04-02T19:14:52.482Z,6.50
2023-04-02T19:20:02.905Z,6.50
2023-04-02T19:25:24.765Z,6.50
2023-04-02T19:30:40.445Z,6.10
2023-04-02T19:35:47.840Z,5.90
2023-04-02T19:40:52.752Z,5.90
2023-04-02T19:45:53.599Z,5.80
2023-04-02T19:50:52.149Z,5.80
2023-04-02T19:55:52.571Z,5.70
2023-04-02T20:00:51.132Z,5.80
2023-04-02T20:05:50.210Z,6.10
2023-04-02T20:10:48.765Z,6.70
2023-04-02T20:15:49.514Z,6.50
2023-04-02T20:20:48.822Z,6.50
2023-04-02T20:25:47.543Z,6.40
2023-04-02T20:30:46.721Z,5.90
2023-04-02T20:35:46.682Z,5.10
2023-04-02T20:40:46.428Z,4.80
2023-04-02T20:45:55.029Z,4.90
2023-04-02T20:50:55.117Z,4.90
2023-04-02T20:55:53.543Z,5.10
2023-04-02T21:00:51.664Z,5.10
2023-04-02T21:05:50.719Z,5.00
2023-04-02T21:10:51.011Z,5.50
2023-04-02T21:15:49.499Z,5.30
2023-04-02T21:20:57.645Z,5.80
2023-04-02T21:25:59.071Z,5.50
2023-04-02T21:31:04.201Z,5.60
2023-04-02T21:36:07.605Z,5.90
2023-04-02T21:41:15.712Z,6.10
2023-04-02T21:46:14.028Z,6.30
2023-04-02T21:51:14.409Z,6.30
2023-04-02T21:56:16.850Z,6.20
2023-04-02T22:01:26.571Z,6.20
2023-04-02T22:06:27.820Z,6.20
2023-04-02T22:11:30.139Z,6.40
2023-04-02T22:16:30.463Z,6.50
2023-04-02T22:21:30.802Z,6.60
2023-04-02T22:26:32.625Z,6.60
2023-04-02T22:31:33.274Z,6.60
2023-04-02T22:36:32.524Z,6.60
2023-04-02T22:41:32.637Z,6.80
2023-04-02T22:46:31.950Z,6.60
2023-04-02T22:51:30.705Z,6.60
2023-04-02T22:56:33.456Z,6.80
2023-04-02T23:01:34.469Z,6.70
2023-04-02T23:06:33.385Z,6.50
2023-04-02T23:11:33.234Z,6.70
2023-04-02T23:16:31.835Z,6.50
2023-04-02T23:21:30.411Z,6.50
2023-04-02T23:26:31.647Z,6.50
2023-04-02T23:31:32.196Z,6.70
2023-04-02T23:36:32.277Z,6.50
2023-04-02T23:41:31.330Z,6.30
2023-04-02T23:46:32.154Z,6.30
2023-04-02T23:51:32.661Z,6.60
2023-04-02T23:56:31.155Z,6.20
